sensor_id;sensor_type;location;lat;lon;timestamp;P1;durP1;ratioP1;P2;durP2;ratioP2
37633;SDS011;32048;49.902;22.508;2023-06-22T00:00:02;19.90;;;17.73;;
37633;SDS011;32048;49.902;22.508;2023-06-22T00:02:55;19.65;;;16.33;;
37633;SDS011;32048;49.902;22.508;2023-06-22T00:05:22;22.98;;;18.25;;
37633;SDS011;32048;49.902;22.508;2023-06-22T00:07:49;22.38;;;17.27;;
37633;SDS011;32048;49.902;22.508;2023-06-22T00:10:16;19.40;;;17.08;;
37633;SDS011;32048;49.902;22.508;2023-06-22T00:12:43;19.52;;;16.33;;
37633;SDS011;32048;49.902;22.508;2023-06-22T00:15:10;17.92;;;16.00;;
37633;SDS011;32048;49.902;22.508;2023-06-22T00:17:37;18.00;;;15.60;;
37633;SDS011;32048;49.902;22.508;2023-06-22T00:20:04;17.23;;;15.32;;
37633;SDS011;32048;49.902;22.508;2023-06-22T00:22:32;18.83;;;15.07;;
37633;SDS011;32048;49.902;22.508;2023-06-22T00:25:08;19.40;;;15.90;;
37633;SDS011;32048;49.902;22.508;2023-06-22T00:27:36;19.95;;;15.57;;
37633;SDS011;32048;49.902;22.508;2023-06-22T00:30:04;17.70;;;15.82;;
37633;SDS011;32048;49.902;22.508;2023-06-22T00:32:31;18.48;;;15.95;;
37633;SDS011;32048;49.902;22.508;2023-06-22T00:34:58;21.77;;;15.82;;
37633;SDS011;32048;49.902;22.508;2023-06-22T00:37:26;19.52;;;16.30;;
37633;SDS011;32048;49.902;22.508;2023-06-22T00:39:56;22.13;;;17.65;;
37633;SDS011;32048;49.902;22.508;2023-06-22T00:42:23;28.30;;;16.30;;
37633;SDS011;32048;49.902;22.508;2023-06-22T00:44:50;19.02;;;17.00;;
37633;SDS011;32048;49.902;22.508;2023-06-22T00:47:17;18.75;;;16.75;;
37633;SDS011;32048;49.902;22.508;2023-06-22T00:49:47;19.75;;;17.65;;
37633;SDS011;32048;49.902;22.508;2023-06-22T00:52:15;19.83;;;16.75;;
37633;SDS011;32048;49.902;22.508;2023-06-22T00:54:48;19.63;;;16.80;;
37633;SDS011;32048;49.902;22.508;2023-06-22T00:57:17;22.48;;;17.20;;
37633;SDS011;32048;49.902;22.508;2023-06-22T00:59:45;20.40;;;16.92;;
37633;SDS011;32048;49.902;22.508;2023-06-22T01:02:14;20.80;;;17.63;;
37633;SDS011;32048;49.902;22.508;2023-06-22T01:04:41;21.42;;;18.15;;
37633;SDS011;32048;49.902;22.508;2023-06-22T01:12:38;20.42;;;17.63;;
37633;SDS011;32048;49.902;22.508;2023-06-22T01:15:14;19.58;;;17.48;;
37633;SDS011;32048;49.902;22.508;2023-06-22T01:17:47;20.80;;;17.85;;
37633;SDS011;32048;49.902;22.508;2023-06-22T01:20:16;20.42;;;17.67;;
37633;SDS011;32048;49.902;22.508;2023-06-22T01:25:47;19.25;;;17.25;;
37633;SDS011;32048;49.902;22.508;2023-06-22T01:31:12;19.02;;;17.02;;
37633;SDS011;32048;49.902;22.508;2023-06-22T01:33:43;21.23;;;16.98;;
37633;SDS011;32048;49.902;22.508;2023-06-22T01:36:13;20.67;;;17.95;;
37633;SDS011;32048;49.902;22.508;2023-06-22T01:38:41;21.50;;;18.08;;
37633;SDS011;32048;49.902;22.508;2023-06-22T01:41:10;24.83;;;18.67;;
37633;SDS011;32048;49.902;22.508;2023-06-22T01:43:37;22.77;;;18.73;;
37633;SDS011;32048;49.902;22.508;2023-06-22T01:46:05;21.50;;;18.73;;
37633;SDS011;32048;49.902;22.508;2023-06-22T01:48:33;23.13;;;18.13;;
37633;SDS011;32048;49.902;22.508;2023-06-22T01:51:01;21.45;;;18.17;;
37633;SDS011;32048;49.902;22.508;2023-06-22T01:53:29;21.63;;;17.97;;
37633;SDS011;32048;49.902;22.508;2023-06-22T01:55:56;20.08;;;17.27;;
37633;SDS011;32048;49.902;22.508;2023-06-22T01:58:25;24.30;;;17.67;;
37633;SDS011;32048;49.902;22.508;2023-06-22T02:00:59;19.25;;;17.15;;
37633;SDS011;32048;49.902;22.508;2023-06-22T02:04:10;21.73;;;17.40;;
37633;SDS011;32048;49.902;22.508;2023-06-22T02:06:44;21.58;;;17.80;;
37633;SDS011;32048;49.902;22.508;2023-06-22T02:09:14;22.08;;;17.88;;
37633;SDS011;32048;49.902;22.508;2023-06-22T02:11:44;19.08;;;16.67;;
37633;SDS011;32048;49.902;22.508;2023-06-22T02:16:41;20.85;;;17.13;;
37633;SDS011;32048;49.902;22.508;2023-06-22T02:19:08;21.98;;;18.33;;
37633;SDS011;32048;49.902;22.508;2023-06-22T02:21:36;21.58;;;17.88;;
37633;SDS011;32048;49.902;22.508;2023-06-22T02:24:03;20.20;;;17.10;;
37633;SDS011;32048;49.902;22.508;2023-06-22T02:26:30;20.65;;;16.80;;
37633;SDS011;32048;49.902;22.508;2023-06-22T02:28:59;22.58;;;16.83;;
37633;SDS011;32048;49.902;22.508;2023-06-22T02:31:26;22.75;;;17.23;;
37633;SDS011;32048;49.902;22.508;2023-06-22T02:33:58;19.10;;;16.92;;
37633;SDS011;32048;49.902;22.508;2023-06-22T02:36:25;20.05;;;16.33;;
37633;SDS011;32048;49.902;22.508;2023-06-22T02:38:54;18.45;;;16.52;;
37633;SDS011;32048;49.902;22.508;2023-06-22T02:41:23;20.77;;;17.98;;
37633;SDS011;32048;49.902;22.508;2023-06-22T02:43:50;21.23;;;18.98;;
37633;SDS011;32048;49.902;22.508;2023-06-22T02:46:17;19.85;;;17.40;;
37633;SDS011;32048;49.902;22.508;2023-06-22T02:48:44;22.38;;;19.13;;
37633;SDS011;32048;49.902;22.508;2023-06-22T02:51:12;19.92;;;17.83;;
37633;SDS011;32048;49.902;22.508;2023-06-22T02:53:39;20.45;;;18.15;;
37633;SDS011;32048;49.902;22.508;2023-06-22T02:56:11;20.75;;;18.48;;
37633;SDS011;32048;49.902;22.508;2023-06-22T02:58:39;21.85;;;19.52;;
37633;SDS011;32048;49.902;22.508;2023-06-22T03:01:06;21.45;;;19.23;;
37633;SDS011;32048;49.902;22.508;2023-06-22T03:03:33;22.38;;;18.85;;
37633;SDS011;32048;49.902;22.508;2023-06-22T03:06:01;25.45;;;20.38;;
37633;SDS011;32048;49.902;22.508;2023-06-22T03:08:28;21.80;;;18.67;;
37633;SDS011;32048;49.902;22.508;2023-06-22T03:10:55;20.33;;;18.13;;
37633;SDS011;32048;49.902;22.508;2023-06-22T03:13:23;23.75;;;19.35;;
37633;SDS011;32048;49.902;22.508;2023-06-22T03:15:50;23.10;;;19.42;;
37633;SDS011;32048;49.902;22.508;2023-06-22T03:18:17;22.95;;;19.20;;
37633;SDS011;32048;49.902;22.508;2023-06-22T03:20:45;22.70;;;19.55;;
37633;SDS011;32048;49.902;22.508;2023-06-22T03:23:11;22.85;;;19.35;;
37633;SDS011;32048;49.902;22.508;2023-06-22T03:25:39;27.50;;;19.88;;
37633;SDS011;32048;49.902;22.508;2023-06-22T03:28:06;24.08;;;19.90;;
37633;SDS011;32048;49.902;22.508;2023-06-22T03:30:33;21.10;;;18.90;;
37633;SDS011;32048;49.902;22.508;2023-06-22T03:33:00;22.13;;;18.75;;
37633;SDS011;32048;49.902;22.508;2023-06-22T03:35:27;27.30;;;20.80;;
37633;SDS011;32048;49.902;22.508;2023-06-22T03:37:54;24.27;;;20.85;;
37633;SDS011;32048;49.902;22.508;2023-06-22T03:40:21;21.48;;;17.75;;
37633;SDS011;32048;49.902;22.508;2023-06-22T03:42:50;19.77;;;17.65;;
37633;SDS011;32048;49.902;22.508;2023-06-22T03:45:18;21.38;;;17.27;;
37633;SDS011;32048;49.902;22.508;2023-06-22T03:47:44;18.80;;;16.35;;
37633;SDS011;32048;49.902;22.508;2023-06-22T03:50:12;18.77;;;15.50;;
37633;SDS011;32048;49.902;22.508;2023-06-22T03:52:40;25.45;;;17.95;;
37633;SDS011;32048;49.902;22.508;2023-06-22T03:55:07;29.73;;;16.42;;
37633;SDS011;32048;49.902;22.508;2023-06-22T03:57:34;16.15;;;14.48;;
37633;SDS011;32048;49.902;22.508;2023-06-22T04:00:02;17.40;;;14.68;;
37633;SDS011;32048;49.902;22.508;2023-06-22T04:02:32;21.10;;;15.40;;
37633;SDS011;32048;49.902;22.508;2023-06-22T04:04:59;20.30;;;13.38;;
37633;SDS011;32048;49.902;22.508;2023-06-22T04:07:30;18.83;;;14.30;;
37633;SDS011;32048;49.902;22.508;2023-06-22T04:09:57;16.70;;;13.18;;
37633;SDS011;32048;49.902;22.508;2023-06-22T04:12:24;17.40;;;12.95;;
37633;SDS011;32048;49.902;22.508;2023-06-22T04:14:51;15.63;;;12.57;;
37633;SDS011;32048;49.902;22.508;2023-06-22T04:17:18;13.73;;;12.02;;
37633;SDS011;32048;49.902;22.508;2023-06-22T04:19:46;22.40;;;12.90;;
37633;SDS011;32048;49.902;22.508;2023-06-22T04:22:13;20.23;;;12.63;;
37633;SDS011;32048;49.902;22.508;2023-06-22T04:24:40;15.00;;;12.38;;
37633;SDS011;32048;49.902;22.508;2023-06-22T04:27:07;13.98;;;11.80;;
37633;SDS011;32048;49.902;22.508;2023-06-22T04:29:34;14.90;;;11.80;;
37633;SDS011;32048;49.902;22.508;2023-06-22T04:32:01;14.00;;;11.95;;
37633;SDS011;32048;49.902;22.508;2023-06-22T04:34:32;15.82;;;12.50;;
37633;SDS011;32048;49.902;22.508;2023-06-22T04:36:59;15.35;;;11.55;;
37633;SDS011;32048;49.902;22.508;2023-06-22T04:39:26;14.85;;;11.15;;
37633;SDS011;32048;49.902;22.508;2023-06-22T04:41:53;14.18;;;10.90;;
37633;SDS011;32048;49.902;22.508;2023-06-22T04:44:27;13.57;;;10.98;;
37633;SDS011;32048;49.902;22.508;2023-06-22T04:46:57;17.88;;;11.68;;
37633;SDS011;32048;49.902;22.508;2023-06-22T04:49:30;13.00;;;11.55;;
37633;SDS011;32048;49.902;22.508;2023-06-22T04:52:02;15.60;;;10.65;;
37633;SDS011;32048;49.902;22.508;2023-06-22T04:54:37;13.57;;;11.45;;
37633;SDS011;32048;49.902;22.508;2023-06-22T04:57:06;12.13;;;10.82;;
37633;SDS011;32048;49.902;22.508;2023-06-22T04:59:37;16.23;;;10.85;;
37633;SDS011;32048;49.902;22.508;2023-06-22T05:02:05;11.90;;;10.48;;
37633;SDS011;32048;49.902;22.508;2023-06-22T05:04:33;13.60;;;10.27;;
37633;SDS011;32048;49.902;22.508;2023-06-22T05:07:02;15.55;;;10.70;;
37633;SDS011;32048;49.902;22.508;2023-06-22T05:09:30;21.27;;;11.90;;
37633;SDS011;32048;49.902;22.508;2023-06-22T05:11:57;19.58;;;11.30;;
37633;SDS011;32048;49.902;22.508;2023-06-22T05:14:26;13.80;;;11.10;;
37633;SDS011;32048;49.902;22.508;2023-06-22T05:16:53;11.75;;;10.48;;
37633;SDS011;32048;49.902;22.508;2023-06-22T05:19:20;16.38;;;12.00;;
37633;SDS011;32048;49.902;22.508;2023-06-22T05:21:47;14.55;;;10.32;;
37633;SDS011;32048;49.902;22.508;2023-06-22T05:24:14;12.88;;;10.00;;
37633;SDS011;32048;49.902;22.508;2023-06-22T05:26:41;16.90;;;11.40;;
37633;SDS011;32048;49.902;22.508;2023-06-22T05:29:08;12.52;;;9.68;;
37633;SDS011;32048;49.902;22.508;2023-06-22T05:31:35;10.85;;;9.35;;
37633;SDS011;32048;49.902;22.508;2023-06-22T05:34:02;28.75;;;11.82;;
37633;SDS011;32048;49.902;22.508;2023-06-22T05:36:29;20.33;;;10.30;;
37633;SDS011;32048;49.902;22.508;2023-06-22T05:38:58;12.68;;;10.23;;
37633;SDS011;32048;49.902;22.508;2023-06-22T05:41:25;11.27;;;10.07;;
37633;SDS011;32048;49.902;22.508;2023-06-22T05:43:53;12.25;;;10.15;;
37633;SDS011;32048;49.902;22.508;2023-06-22T05:46:19;12.75;;;9.57;;
37633;SDS011;32048;49.902;22.508;2023-06-22T05:48:47;13.48;;;9.68;;
37633;SDS011;32048;49.902;22.508;2023-06-22T05:51:14;13.40;;;9.60;;
37633;SDS011;32048;49.902;22.508;2023-06-22T05:53:41;11.82;;;9.82;;
37633;SDS011;32048;49.902;22.508;2023-06-22T05:56:08;10.95;;;9.35;;
37633;SDS011;32048;49.902;22.508;2023-06-22T05:58:35;12.07;;;10.48;;
37633;SDS011;32048;49.902;22.508;2023-06-22T06:01:02;16.83;;;9.80;;
37633;SDS011;32048;49.902;22.508;2023-06-22T06:03:29;13.35;;;9.55;;
37633;SDS011;32048;49.902;22.508;2023-06-22T06:05:56;12.02;;;8.93;;
37633;SDS011;32048;49.902;22.508;2023-06-22T06:08:23;15.20;;;10.07;;
37633;SDS011;32048;49.902;22.508;2023-06-22T06:10:52;12.35;;;9.65;;
37633;SDS011;32048;49.902;22.508;2023-06-22T06:13:20;12.32;;;9.35;;
37633;SDS011;32048;49.902;22.508;2023-06-22T06:15:47;12.80;;;9.15;;
37633;SDS011;32048;49.902;22.508;2023-06-22T06:18:14;11.40;;;9.68;;
37633;SDS011;32048;49.902;22.508;2023-06-22T06:20:41;11.65;;;9.73;;
37633;SDS011;32048;49.902;22.508;2023-06-22T06:23:09;13.15;;;9.68;;
37633;SDS011;32048;49.902;22.508;2023-06-22T06:25:35;12.68;;;9.52;;
37633;SDS011;32048;49.902;22.508;2023-06-22T06:28:03;10.35;;;9.13;;
37633;SDS011;32048;49.902;22.508;2023-06-22T06:30:30;12.20;;;9.43;;
37633;SDS011;32048;49.902;22.508;2023-06-22T06:32:58;11.80;;;9.65;;
37633;SDS011;32048;49.902;22.508;2023-06-22T06:35:25;12.05;;;9.13;;
37633;SDS011;32048;49.902;22.508;2023-06-22T06:37:53;17.10;;;10.10;;
37633;SDS011;32048;49.902;22.508;2023-06-22T06:40:20;15.45;;;9.88;;
37633;SDS011;32048;49.902;22.508;2023-06-22T06:42:47;18.08;;;10.38;;
37633;SDS011;32048;49.902;22.508;2023-06-22T06:45:16;14.27;;;10.40;;
37633;SDS011;32048;49.902;22.508;2023-06-22T06:47:50;15.90;;;10.25;;
37633;SDS011;32048;49.902;22.508;2023-06-22T06:50:18;11.38;;;10.10;;
37633;SDS011;32048;49.902;22.508;2023-06-22T06:52:45;12.40;;;9.75;;
37633;SDS011;32048;49.902;22.508;2023-06-22T06:55:12;12.80;;;9.82;;
37633;SDS011;32048;49.902;22.508;2023-06-22T06:57:41;12.77;;;8.93;;
37633;SDS011;32048;49.902;22.508;2023-06-22T07:00:10;10.93;;;9.57;;
37633;SDS011;32048;49.902;22.508;2023-06-22T07:02:43;14.73;;;9.52;;
37633;SDS011;32048;49.902;22.508;2023-06-22T07:05:12;14.02;;;9.30;;
37633;SDS011;32048;49.902;22.508;2023-06-22T07:07:40;19.17;;;10.10;;
37633;SDS011;32048;49.902;22.508;2023-06-22T07:10:08;28.30;;;10.82;;
37633;SDS011;32048;49.902;22.508;2023-06-22T07:12:36;13.30;;;10.25;;
37633;SDS011;32048;49.902;22.508;2023-06-22T07:15:03;12.93;;;10.07;;
37633;SDS011;32048;49.902;22.508;2023-06-22T07:17:32;11.65;;;9.43;;
37633;SDS011;32048;49.902;22.508;2023-06-22T07:19:59;12.85;;;9.60;;
37633;SDS011;32048;49.902;22.508;2023-06-22T07:22:26;12.55;;;9.35;;
37633;SDS011;32048;49.902;22.508;2023-06-22T07:24:53;11.00;;;8.38;;
37633;SDS011;32048;49.902;22.508;2023-06-22T07:27:20;10.35;;;8.20;;
37633;SDS011;32048;49.902;22.508;2023-06-22T07:29:47;8.50;;;7.60;;
37633;SDS011;32048;49.902;22.508;2023-06-22T07:32:15;11.18;;;8.15;;
37633;SDS011;32048;49.902;22.508;2023-06-22T07:34:42;10.45;;;8.15;;
37633;SDS011;32048;49.902;22.508;2023-06-22T07:37:10;12.13;;;7.85;;
37633;SDS011;32048;49.902;22.508;2023-06-22T07:39:37;11.65;;;9.48;;
37633;SDS011;32048;49.902;22.508;2023-06-22T07:42:04;10.18;;;8.43;;
37633;SDS011;32048;49.902;22.508;2023-06-22T07:44:31;9.85;;;7.78;;
37633;SDS011;32048;49.902;22.508;2023-06-22T07:46:59;9.75;;;7.32;;
37633;SDS011;32048;49.902;22.508;2023-06-22T07:49:27;8.52;;;7.72;;
37633;SDS011;32048;49.902;22.508;2023-06-22T07:51:54;7.82;;;7.03;;
37633;SDS011;32048;49.902;22.508;2023-06-22T07:54:21;8.93;;;7.90;;
37633;SDS011;32048;49.902;22.508;2023-06-22T07:56:49;10.35;;;7.57;;
37633;SDS011;32048;49.902;22.508;2023-06-22T07:59:15;7.97;;;6.93;;
37633;SDS011;32048;49.902;22.508;2023-06-22T08:01:43;10.40;;;8.30;;
37633;SDS011;32048;49.902;22.508;2023-06-22T08:04:10;9.90;;;7.65;;
37633;SDS011;32048;49.902;22.508;2023-06-22T08:06:37;7.70;;;6.97;;
37633;SDS011;32048;49.902;22.508;2023-06-22T08:09:04;8.32;;;7.20;;
37633;SDS011;32048;49.902;22.508;2023-06-22T08:11:31;7.55;;;6.75;;
37633;SDS011;32048;49.902;22.508;2023-06-22T08:13:58;8.05;;;7.25;;
37633;SDS011;32048;49.902;22.508;2023-06-22T08:16:25;10.30;;;7.05;;
37633;SDS011;32048;49.902;22.508;2023-06-22T08:18:52;8.43;;;7.43;;
37633;SDS011;32048;49.902;22.508;2023-06-22T08:21:20;7.93;;;6.57;;
37633;SDS011;32048;49.902;22.508;2023-06-22T08:23:47;7.80;;;7.00;;
37633;SDS011;32048;49.902;22.508;2023-06-22T08:26:15;7.38;;;6.57;;
37633;SDS011;32048;49.902;22.508;2023-06-22T08:28:42;8.70;;;6.35;;
37633;SDS011;32048;49.902;22.508;2023-06-22T08:31:09;8.13;;;6.63;;
37633;SDS011;32048;49.902;22.508;2023-06-22T08:33:38;7.20;;;6.45;;
37633;SDS011;32048;49.902;22.508;2023-06-22T08:36:15;10.13;;;6.65;;
37633;SDS011;32048;49.902;22.508;2023-06-22T08:38:42;7.00;;;6.30;;
37633;SDS011;32048;49.902;22.508;2023-06-22T08:41:10;6.50;;;5.78;;
37633;SDS011;32048;49.902;22.508;2023-06-22T08:43:37;7.07;;;5.88;;
37633;SDS011;32048;49.902;22.508;2023-06-22T08:46:04;7.35;;;6.57;;
37633;SDS011;32048;49.902;22.508;2023-06-22T08:48:31;7.10;;;6.40;;
37633;SDS011;32048;49.902;22.508;2023-06-22T08:50:58;11.38;;;10.15;;
37633;SDS011;32048;49.902;22.508;2023-06-22T08:53:25;8.05;;;7.05;;
37633;SDS011;32048;49.902;22.508;2023-06-22T08:55:52;9.70;;;7.50;;
37633;SDS011;32048;49.902;22.508;2023-06-22T08:58:19;15.87;;;8.10;;
37633;SDS011;32048;49.902;22.508;2023-06-22T09:00:48;7.50;;;6.80;;
37633;SDS011;32048;49.902;22.508;2023-06-22T09:03:15;7.72;;;6.40;;
37633;SDS011;32048;49.902;22.508;2023-06-22T09:05:42;6.50;;;5.90;;
37633;SDS011;32048;49.902;22.508;2023-06-22T09:08:10;8.18;;;7.05;;
37633;SDS011;32048;49.902;22.508;2023-06-22T09:10:37;7.75;;;6.35;;
37633;SDS011;32048;49.902;22.508;2023-06-22T09:13:04;7.33;;;6.57;;
37633;SDS011;32048;49.902;22.508;2023-06-22T09:15:32;8.00;;;6.97;;
37633;SDS011;32048;49.902;22.508;2023-06-22T09:17:59;11.27;;;6.75;;
37633;SDS011;32048;49.902;22.508;2023-06-22T09:20:27;7.47;;;6.65;;
37633;SDS011;32048;49.902;22.508;2023-06-22T09:22:54;10.77;;;6.93;;
37633;SDS011;32048;49.902;22.508;2023-06-22T09:25:21;10.85;;;8.50;;
37633;SDS011;32048;49.902;22.508;2023-06-22T09:27:48;7.63;;;6.83;;
37633;SDS011;32048;49.902;22.508;2023-06-22T09:30:15;9.02;;;7.10;;
37633;SDS011;32048;49.902;22.508;2023-06-22T09:32:42;11.73;;;6.60;;
37633;SDS011;32048;49.902;22.508;2023-06-22T09:35:11;10.60;;;6.95;;
37633;SDS011;32048;49.902;22.508;2023-06-22T09:37:40;7.13;;;6.43;;
37633;SDS011;32048;49.902;22.508;2023-06-22T09:40:07;14.20;;;6.90;;
37633;SDS011;32048;49.902;22.508;2023-06-22T09:42:36;7.63;;;6.68;;
37633;SDS011;32048;49.902;22.508;2023-06-22T09:47:31;10.07;;;7.40;;
37633;SDS011;32048;49.902;22.508;2023-06-22T09:49:59;9.23;;;7.47;;
37633;SDS011;32048;49.902;22.508;2023-06-22T09:52:26;10.38;;;7.05;;
37633;SDS011;32048;49.902;22.508;2023-06-22T09:55:12;8.85;;;7.35;;
37633;SDS011;32048;49.902;22.508;2023-06-22T09:57:39;11.23;;;7.50;;
37633;SDS011;32048;49.902;22.508;2023-06-22T10:00:06;9.85;;;7.00;;
37633;SDS011;32048;49.902;22.508;2023-06-22T10:02:40;7.97;;;6.38;;
37633;SDS011;32048;49.902;22.508;2023-06-22T10:05:08;13.98;;;5.88;;
37633;SDS011;32048;49.902;22.508;2023-06-22T10:07:35;7.22;;;6.40;;
37633;SDS011;32048;49.902;22.508;2023-06-22T10:10:07;7.13;;;6.43;;
37633;SDS011;32048;49.902;22.508;2023-06-22T10:12:34;8.13;;;6.40;;
37633;SDS011;32048;49.902;22.508;2023-06-22T10:15:01;8.07;;;6.72;;
37633;SDS011;32048;49.902;22.508;2023-06-22T10:19:56;7.10;;;6.40;;
37633;SDS011;32048;49.902;22.508;2023-06-22T10:22:23;12.25;;;7.20;;
37633;SDS011;32048;49.902;22.508;2023-06-22T10:24:50;7.78;;;6.97;;
37633;SDS011;32048;49.902;22.508;2023-06-22T10:27:17;6.95;;;6.35;;
37633;SDS011;32048;49.902;22.508;2023-06-22T10:29:45;10.55;;;5.70;;
37633;SDS011;32048;49.902;22.508;2023-06-22T10:32:11;6.35;;;5.75;;
37633;SDS011;32048;49.902;22.508;2023-06-22T10:34:39;8.80;;;7.90;;
37633;SDS011;32048;49.902;22.508;2023-06-22T10:37:06;12.40;;;9.45;;
37633;SDS011;32048;49.902;22.508;2023-06-22T10:39:33;8.18;;;5.60;;
37633;SDS011;32048;49.902;22.508;2023-06-22T10:42:00;8.05;;;5.70;;
37633;SDS011;32048;49.902;22.508;2023-06-22T10:44:27;6.97;;;6.00;;
37633;SDS011;32048;49.902;22.508;2023-06-22T10:46:54;10.30;;;6.47;;
37633;SDS011;32048;49.902;22.508;2023-06-22T10:49:24;18.80;;;7.07;;
37633;SDS011;32048;49.902;22.508;2023-06-22T10:51:51;7.10;;;6.40;;
37633;SDS011;32048;49.902;22.508;2023-06-22T10:54:18;8.30;;;6.00;;
37633;SDS011;32048;49.902;22.508;2023-06-22T10:56:45;9.63;;;5.93;;
37633;SDS011;32048;49.902;22.508;2023-06-22T10:59:13;13.30;;;7.90;;
37633;SDS011;32048;49.902;22.508;2023-06-22T11:01:39;14.68;;;8.05;;
37633;SDS011;32048;49.902;22.508;2023-06-22T11:04:07;98.88;;;22.77;;
37633;SDS011;32048;49.902;22.508;2023-06-22T11:06:34;11.60;;;6.90;;
37633;SDS011;32048;49.902;22.508;2023-06-22T11:09:01;8.93;;;6.18;;
37633;SDS011;32048;49.902;22.508;2023-06-22T11:11:42;15.15;;;8.55;;
37633;SDS011;32048;49.902;22.508;2023-06-22T11:14:10;9.40;;;7.03;;
37633;SDS011;32048;49.902;22.508;2023-06-22T11:16:37;8.90;;;6.93;;
37633;SDS011;32048;49.902;22.508;2023-06-22T11:19:04;17.70;;;9.13;;
37633;SDS011;32048;49.902;22.508;2023-06-22T11:21:32;11.10;;;7.65;;
37633;SDS011;32048;49.902;22.508;2023-06-22T11:23:59;11.90;;;8.18;;
37633;SDS011;32048;49.902;22.508;2023-06-22T11:26:26;14.68;;;9.50;;
37633;SDS011;32048;49.902;22.508;2023-06-22T11:28:56;16.60;;;8.75;;
37633;SDS011;32048;49.902;22.508;2023-06-22T11:31:24;8.68;;;7.63;;
37633;SDS011;32048;49.902;22.508;2023-06-22T11:34:12;14.97;;;8.80;;
37633;SDS011;32048;49.902;22.508;2023-06-22T11:36:38;11.63;;;8.30;;
37633;SDS011;32048;49.902;22.508;2023-06-22T11:39:08;12.60;;;8.40;;
37633;SDS011;32048;49.902;22.508;2023-06-22T11:41:36;9.88;;;8.27;;
37633;SDS011;32048;49.902;22.508;2023-06-22T11:44:03;10.10;;;8.27;;
37633;SDS011;32048;49.902;22.508;2023-06-22T11:46:31;10.30;;;8.20;;
37633;SDS011;32048;49.902;22.508;2023-06-22T11:48:59;13.60;;;8.73;;
37633;SDS011;32048;49.902;22.508;2023-06-22T11:51:26;11.93;;;8.52;;
37633;SDS011;32048;49.902;22.508;2023-06-22T11:53:54;28.52;;;11.85;;
37633;SDS011;32048;49.902;22.508;2023-06-22T11:56:21;11.73;;;8.45;;
37633;SDS011;32048;49.902;22.508;2023-06-22T11:58:48;10.20;;;8.15;;
37633;SDS011;32048;49.902;22.508;2023-06-22T12:01:15;12.85;;;8.75;;
37633;SDS011;32048;49.902;22.508;2023-06-22T12:03:42;11.80;;;8.55;;
37633;SDS011;32048;49.902;22.508;2023-06-22T12:06:12;30.67;;;9.45;;
37633;SDS011;32048;49.902;22.508;2023-06-22T12:08:39;10.30;;;8.35;;
37633;SDS011;32048;49.902;22.508;2023-06-22T12:11:06;12.07;;;7.72;;
37633;SDS011;32048;49.902;22.508;2023-06-22T12:13:34;13.27;;;8.73;;
37633;SDS011;32048;49.902;22.508;2023-06-22T12:16:01;13.85;;;8.68;;
37633;SDS011;32048;49.902;22.508;2023-06-22T12:18:28;16.70;;;9.57;;
37633;SDS011;32048;49.902;22.508;2023-06-22T12:20:55;21.42;;;11.15;;
37633;SDS011;32048;49.902;22.508;2023-06-22T12:23:22;23.33;;;12.10;;
37633;SDS011;32048;49.902;22.508;2023-06-22T12:25:49;12.00;;;8.13;;
37633;SDS011;32048;49.902;22.508;2023-06-22T12:28:16;12.25;;;8.10;;
37633;SDS011;32048;49.902;22.508;2023-06-22T12:30:43;10.05;;;8.50;;
37633;SDS011;32048;49.902;22.508;2023-06-22T12:33:10;11.73;;;8.23;;
37633;SDS011;32048;49.902;22.508;2023-06-22T12:35:37;12.15;;;8.40;;
37633;SDS011;32048;49.902;22.508;2023-06-22T12:38:04;9.27;;;8.15;;
37633;SDS011;32048;49.902;22.508;2023-06-22T12:40:33;16.67;;;10.95;;
37633;SDS011;32048;49.902;22.508;2023-06-22T12:43:00;24.02;;;8.30;;
37633;SDS011;32048;49.902;22.508;2023-06-22T12:45:28;16.95;;;10.13;;
37633;SDS011;32048;49.902;22.508;2023-06-22T12:47:58;9.48;;;8.48;;
37633;SDS011;32048;49.902;22.508;2023-06-22T12:50:26;9.00;;;7.90;;
37633;SDS011;32048;49.902;22.508;2023-06-22T12:52:54;19.92;;;11.52;;
37633;SDS011;32048;49.902;22.508;2023-06-22T12:55:21;16.08;;;9.88;;
37633;SDS011;32048;49.902;22.508;2023-06-22T12:57:48;23.23;;;12.00;;
37633;SDS011;32048;49.902;22.508;2023-06-22T13:00:15;19.42;;;10.20;;
37633;SDS011;32048;49.902;22.508;2023-06-22T13:02:43;20.38;;;9.27;;
37633;SDS011;32048;49.902;22.508;2023-06-22T13:05:10;13.48;;;8.35;;
37633;SDS011;32048;49.902;22.508;2023-06-22T13:07:37;11.10;;;8.20;;
37633;SDS011;32048;49.902;22.508;2023-06-22T13:10:05;18.58;;;11.50;;
37633;SDS011;32048;49.902;22.508;2023-06-22T13:12:32;13.90;;;9.03;;
37633;SDS011;32048;49.902;22.508;2023-06-22T13:14:59;12.45;;;7.95;;
37633;SDS011;32048;49.902;22.508;2023-06-22T13:17:26;13.65;;;9.35;;
37633;SDS011;32048;49.902;22.508;2023-06-22T13:19:53;73.00;;;26.00;;
37633;SDS011;32048;49.902;22.508;2023-06-22T13:22:30;20.23;;;11.60;;
37633;SDS011;32048;49.902;22.508;2023-06-22T13:25:09;12.95;;;9.27;;
37633;SDS011;32048;49.902;22.508;2023-06-22T13:27:40;16.80;;;9.57;;
37633;SDS011;32048;49.902;22.508;2023-06-22T13:30:08;21.73;;;10.23;;
37633;SDS011;32048;49.902;22.508;2023-06-22T13:32:40;10.48;;;8.90;;
37633;SDS011;32048;49.902;22.508;2023-06-22T13:35:09;12.23;;;9.38;;
37633;SDS011;32048;49.902;22.508;2023-06-22T13:37:37;12.77;;;9.25;;
37633;SDS011;32048;49.902;22.508;2023-06-22T13:40:04;18.10;;;9.25;;
37633;SDS011;32048;49.902;22.508;2023-06-22T13:42:33;15.25;;;9.98;;
37633;SDS011;32048;49.902;22.508;2023-06-22T13:45:00;18.70;;;9.85;;
37633;SDS011;32048;49.902;22.508;2023-06-22T13:47:29;15.48;;;10.93;;
37633;SDS011;32048;49.902;22.508;2023-06-22T13:52:24;14.85;;;10.82;;
37633;SDS011;32048;49.902;22.508;2023-06-22T13:54:52;19.70;;;10.52;;
37633;SDS011;32048;49.902;22.508;2023-06-22T13:57:19;22.02;;;10.68;;
37633;SDS011;32048;49.902;22.508;2023-06-22T13:59:46;12.27;;;10.50;;
37633;SDS011;32048;49.902;22.508;2023-06-22T14:02:13;15.90;;;10.88;;
37633;SDS011;32048;49.902;22.508;2023-06-22T14:04:40;17.42;;;10.80;;
37633;SDS011;32048;49.902;22.508;2023-06-22T14:07:08;14.80;;;10.80;;
37633;SDS011;32048;49.902;22.508;2023-06-22T14:09:35;15.48;;;10.90;;
37633;SDS011;32048;49.902;22.508;2023-06-22T14:12:03;13.27;;;11.25;;
37633;SDS011;32048;49.902;22.508;2023-06-22T14:14:31;17.55;;;11.65;;
37633;SDS011;32048;49.902;22.508;2023-06-22T14:16:59;13.98;;;12.32;;
37633;SDS011;32048;49.902;22.508;2023-06-22T14:19:26;15.65;;;12.90;;
37633;SDS011;32048;49.902;22.508;2023-06-22T14:21:54;19.25;;;12.93;;
37633;SDS011;32048;49.902;22.508;2023-06-22T14:24:21;16.38;;;13.35;;
37633;SDS011;32048;49.902;22.508;2023-06-22T14:26:52;15.98;;;13.23;;
37633;SDS011;32048;49.902;22.508;2023-06-22T14:29:18;14.98;;;13.38;;
37633;SDS011;32048;49.902;22.508;2023-06-22T14:31:46;16.27;;;14.02;;
37633;SDS011;32048;49.902;22.508;2023-06-22T14:34:13;16.90;;;14.23;;
37633;SDS011;32048;49.902;22.508;2023-06-22T14:36:41;17.50;;;14.30;;
37633;SDS011;32048;49.902;22.508;2023-06-22T14:39:09;15.80;;;14.23;;
37633;SDS011;32048;49.902;22.508;2023-06-22T14:41:36;20.67;;;14.43;;
37633;SDS011;32048;49.902;22.508;2023-06-22T14:44:03;15.48;;;13.82;;